Time;durP1;ratioP1;P1;durP2;ratioP2;P2;SDS_P1;SDS_P2;PMS_P1;PMS_P2;Temp;Humidity;BMP_temperature;BMP_pressure;BME280_temperature;BME280_humidity;BME280_pressure;Samples;Min_cycle;Max_cycle;Signal;HPM_P1;HPM_P2
2021/11/25 00:00:11;;;;;;;10.57;7.93;;;22.10;36.30;;;;;;5021268;28;20076;-51
2021/11/25 00:02:40;;;;;;;9.07;7.13;;;22.10;36.30;;;;;;5025930;28;20132;-53
2021/11/25 00:05:07;;;;;;;8.60;6.70;;;22.10;36.30;;;;;;5026835;28;20041;-52
2021/11/25 00:07:32;;;;;;;9.80;7.15;;;22.00;36.20;;;;;;5021065;28;20135;-54
2021/11/25 00:09:58;;;;;;;9.55;7.15;;;22.00;36.20;;;;;;5016972;28;20029;-54
2021/11/25 00:12:24;;;;;;;8.75;7.00;;;22.00;36.10;;;;;;5022760;28;20041;-53
2021/11/25 00:14:50;;;;;;;11.15;7.03;;;22.00;36.10;;;;;;5017071;28;20026;-58
2021/11/25 00:17:17;;;;;;;9.43;6.90;;;22.00;36.10;;;;;;5022264;28;20356;-55
2021/11/25 00:19:42;;;;;;;8.93;6.00;;;22.00;36.00;;;;;;5022240;28;20025;-53
2021/11/25 00:22:08;;;;;;;9.15;6.88;;;22.00;36.00;;;;;;5023204;28;20348;-55
2021/11/25 00:24:34;;;;;;;9.38;7.07;;;22.00;36.00;;;;;;5024638;28;20021;-53
2021/11/25 00:27:00;;;;;;;9.10;7.45;;;22.00;36.00;;;;;;5020737;28;20033;-49
2021/11/25 00:29:26;;;;;;;8.75;6.50;;;22.00;36.00;;;;;;5024796;28;20077;-56
2021/11/25 00:31:52;;;;;;;8.57;6.55;;;22.00;36.00;;;;;;5022823;28;20476;-54
2021/11/25 00:34:18;;;;;;;8.20;6.28;;;22.00;36.00;;;;;;5024486;28;20461;-53
2021/11/25 00:36:44;;;;;;;8.40;6.53;;;21.90;35.90;;;;;;5024334;28;20026;-53
2021/11/25 00:39:09;;;;;;;9.50;6.53;;;21.90;35.90;;;;;;5023829;28;20025;-51
2021/11/25 00:41:35;;;;;;;7.93;6.60;;;21.90;35.90;;;;;;5023505;28;20029;-53
2021/11/25 00:44:01;;;;;;;11.05;7.55;;;21.90;35.90;;;;;;5023152;28;20357;-49
2021/11/25 00:46:27;;;;;;;9.45;7.10;;;21.90;35.90;;;;;;5026294;28;20032;-53
2021/11/25 00:48:53;;;;;;;10.02;7.00;;;21.90;35.90;;;;;;5026722;28;20104;-52
2021/11/25 00:51:19;;;;;;;9.60;7.20;;;21.90;35.90;;;;;;5022933;28;20037;-57
2021/11/25 00:53:45;;;;;;;9.00;6.78;;;21.90;35.90;;;;;;5029228;28;20021;-54
2021/11/25 00:56:10;;;;;;;8.73;6.55;;;21.90;35.90;;;;;;5027702;28;20045;-51
2021/11/25 00:58:36;;;;;;;8.27;6.40;;;21.90;35.90;;;;;;5024624;28;20041;-49
2021/11/25 01:01:03;;;;;;;8.40;6.53;;;21.90;35.90;;;;;;5027995;28;20091;-55
2021/11/25 01:03:29;;;;;;;8.07;6.15;;;21.80;35.80;;;;;;5025229;28;20034;-51
2021/11/25 01:05:55;;;;;;;7.90;5.95;;;21.80;35.80;;;;;;5025694;28;20041;-52
2021/11/25 01:08:21;;;;;;;9.00;6.57;;;21.80;35.70;;;;;;5026177;28;20025;-54
2021/11/25 01:10:47;;;;;;;8.82;6.63;;;21.90;35.80;;;;;;5026151;28;20100;-53
2021/11/25 01:13:14;;;;;;;9.07;6.53;;;21.80;35.70;;;;;;5027966;28;20112;-54
2021/11/25 01:15:40;;;;;;;7.57;5.97;;;21.80;35.70;;;;;;5027984;28;20092;-54
2021/11/25 01:18:09;;;;;;;9.30;6.57;;;21.80;35.70;;;;;;5024277;28;20025;-54
2021/11/25 01:20:37;;;;;;;7.80;6.00;;;21.80;35.70;;;;;;5024694;28;20072;-50
2021/11/25 01:23:09;;;;;;;9.10;6.57;;;21.80;35.70;;;;;;5025914;28;20033;-57
2021/11/25 01:25:35;;;;;;;8.38;6.43;;;21.80;35.70;;;;;;5025225;28;20436;-50
2021/11/25 01:28:01;;;;;;;8.50;6.10;;;21.70;35.60;;;;;;5025721;28;20030;-52
2021/11/25 01:30:27;;;;;;;7.35;5.70;;;21.70;35.60;;;;;;5022196;28;20033;-56
2021/11/25 01:32:53;;;;;;;10.65;6.88;;;21.70;35.60;;;;;;5027311;28;20864;-53
2021/11/25 01:35:18;;;;;;;9.07;6.40;;;21.80;35.70;;;;;;5026225;28;20060;-57
2021/11/25 01:37:44;;;;;;;9.35;6.85;;;21.70;35.50;;;;;;5025976;28;20053;-50
2021/11/25 01:40:13;;;;;;;8.20;6.05;;;21.70;35.50;;;;;;5027410;28;20476;-55
2021/11/25 01:42:41;;;;;;;8.18;6.20;;;21.70;35.50;;;;;;5026751;28;20026;-57
2021/11/25 01:45:08;;;;;;;7.63;6.03;;;21.70;35.50;;;;;;5022155;28;20033;-52
2021/11/25 01:47:34;;;;;;;7.38;5.90;;;21.70;35.50;;;;;;5023269;28;20368;-52
2021/11/25 01:49:59;;;;;;;9.38;6.35;;;21.70;35.60;;;;;;5023108;28;20030;-53
2021/11/25 01:52:25;;;;;;;7.72;6.32;;;21.70;35.50;;;;;;5024130;28;20041;-50
2021/11/25 01:54:51;;;;;;;9.25;6.50;;;21.70;35.50;;;;;;5022974;28;20026;-52
2021/11/25 01:57:17;;;;;;;8.57;6.57;;;21.70;35.60;;;;;;5025239;28;20055;-52
2021/11/25 01:59:43;;;;;;;8.30;5.97;;;21.70;35.50;;;;;;5022461;28;20125;-53
2021/11/25 02:02:09;;;;;;;7.45;5.95;;;21.70;35.60;;;;;;5027200;28;20036;-53
2021/11/25 02:04:36;;;;;;;9.02;5.95;;;21.70;35.50;;;;;;5026391;28;20045;-52
2021/11/25 02:07:02;;;;;;;7.22;5.68;;;21.70;35.50;;;;;;5022803;28;20353;-54
2021/11/25 02:09:28;;;;;;;8.55;6.05;;;21.70;35.50;;;;;;5023554;28;20033;-52
2021/11/25 02:11:54;;;;;;;8.13;6.00;;;21.60;35.40;;;;;;5028133;28;20052;-51
2021/11/25 02:14:21;;;;;;;8.55;6.05;;;21.70;35.50;;;;;;5020547;28;20048;-54
2021/11/25 02:16:49;;;;;;;7.97;5.78;;;21.70;35.50;;;;;;5026528;28;20022;-54
2021/11/25 02:19:16;;;;;;;7.90;5.80;;;21.60;35.50;;;;;;5026476;28;20095;-56
2021/11/25 02:21:43;;;;;;;8.05;5.85;;;21.70;35.60;;;;;;5025266;28;20045;-53
2021/11/25 02:24:09;;;;;;;8.73;5.53;;;21.60;35.50;;;;;;5024343;28;20029;-54
2021/11/25 02:26:35;;;;;;;8.20;5.65;;;21.60;35.50;;;;;;5023619;28;20025;-51
2021/11/25 02:29:02;;;;;;;7.28;5.68;;;21.60;35.50;;;;;;5023148;28;20088;-53
2021/11/25 02:31:27;;;;;;;7.47;5.72;;;21.60;35.50;;;;;;5024689;28;20033;-49
2021/11/25 02:33:53;;;;;;;7.07;5.22;;;21.60;35.50;;;;;;5024160;28;20030;-51
2021/11/25 02:36:19;;;;;;;7.93;5.32;;;21.60;35.50;;;;;;5025356;28;20054;-53
2021/11/25 02:38:45;;;;;;;7.65;5.72;;;21.60;35.50;;;;;;5025677;28;20068;-47
2021/11/25 02:41:11;;;;;;;7.30;5.22;;;21.60;35.50;;;;;;5019255;28;20026;-54
2021/11/25 02:43:37;;;;;;;7.00;5.25;;;21.60;35.50;;;;;;5023850;28;20084;-55
2021/11/25 02:46:13;;;;;;;9.60;5.50;;;21.60;35.50;;;;;;5021177;28;20041;-51
2021/11/25 02:48:49;;;;;;;6.65;5.25;;;21.60;35.50;;;;;;5024061;28;20091;-55
2021/11/25 02:51:21;;;;;;;6.85;5.18;;;21.60;35.50;;;;;;5023149;28;20041;-51
2021/11/25 02:53:48;;;;;;;7.10;5.28;;;21.60;35.50;;;;;;5025859;28;20037;-54
2021/11/25 02:56:17;;;;;;;7.07;5.22;;;21.60;35.50;;;;;;5019503;28;20046;-55
2021/11/25 02:58:45;;;;;;;6.93;5.13;;;21.60;35.50;;;;;;5025705;28;20033;-51
2021/11/25 03:01:20;;;;;;;6.85;5.07;;;21.50;35.40;;;;;;5023451;28;20100;-50
2021/11/25 03:03:46;;;;;;;7.07;5.38;;;21.60;35.40;;;;;;5023719;28;20030;-53
2021/11/25 03:06:13;;;;;;;7.80;5.50;;;21.50;35.40;;;;;;5024086;28;20029;-53
2021/11/25 03:08:40;;;;;;;6.90;4.97;;;21.50;35.40;;;;;;5021554;28;20105;-54
2021/11/25 03:11:10;;;;;;;6.95;5.53;;;21.50;35.40;;;;;;5024646;28;20129;-53
2021/11/25 03:13:38;;;;;;;5.57;4.30;;;21.50;35.30;;;;;;5022098;28;20053;-54
2021/11/25 03:16:05;;;;;;;6.65;5.15;;;21.50;35.30;;;;;;5021764;28;20049;-50
2021/11/25 03:18:31;;;;;;;6.78;5.03;;;21.50;35.30;;;;;;5020520;28;20434;-55
2021/11/25 03:20:58;;;;;;;6.70;5.30;;;21.50;35.30;;;;;;5019624;28;20034;-52
2021/11/25 03:23:26;;;;;;;6.00;4.68;;;21.50;35.30;;;;;;5022592;28;20037;-53
2021/11/25 03:25:57;;;;;;;6.05;4.75;;;21.50;35.30;;;;;;5022682;28;20026;-52
2021/11/25 03:28:23;;;;;;;5.82;4.85;;;21.50;35.30;;;;;;5026440;28;20034;-53
2021/11/25 03:30:54;;;;;;;7.93;5.00;;;21.50;35.30;;;;;;5021855;28;20112;-54
2021/11/25 03:33:32;;;;;;;6.47;4.82;;;21.50;35.30;;;;;;5021288;28;20439;-53
2021/11/25 03:36:00;;;;;;;5.35;4.47;;;21.50;35.30;;;;;;5021335;28;20038;-52
2021/11/25 03:38:26;;;;;;;7.07;4.90;;;21.40;35.30;;;;;;5023400;28;20361;-52
2021/11/25 03:40:53;;;;;;;5.05;4.07;;;21.40;35.20;;;;;;5024667;28;20018;-51
2021/11/25 03:43:20;;;;;;;7.47;5.40;;;21.40;35.20;;;;;;5028127;28;20088;-53
2021/11/25 03:45:46;;;;;;;6.90;4.90;;;21.40;35.20;;;;;;5021677;28;20072;-53
2021/11/25 03:48:14;;;;;;;5.32;4.32;;;21.40;35.20;;;;;;5019929;28;20095;-55
2021/11/25 03:50:40;;;;;;;6.28;5.05;;;21.40;35.20;;;;;;5021592;28;20033;-52
2021/11/25 03:53:08;;;;;;;5.25;4.55;;;21.40;35.80;;;;;;5022653;28;20418;-54
2021/11/25 03:55:34;;;;;;;6.97;4.80;;;21.40;35.10;;;;;;5021526;28;20065;-55
2021/11/25 03:58:00;;;;;;;6.38;4.72;;;21.40;35.10;;;;;;5022286;28;20041;-51
2021/11/25 04:00:27;;;;;;;5.78;4.70;;;21.40;35.10;;;;;;5023927;28;20045;-50
2021/11/25 04:02:54;;;;;;;4.93;4.07;;;21.40;35.10;;;;;;5020732;28;20037;-52
2021/11/25 04:05:20;;;;;;;6.05;4.65;;;21.40;35.00;;;;;;5020747;28;20359;-53
2021/11/25 04:07:47;;;;;;;5.80;4.20;;;21.40;35.00;;;;;;5022002;28;20034;-55
2021/11/25 04:10:14;;;;;;;4.85;4.22;;;21.40;35.00;;;;;;5022903;28;20079;-52
2021/11/25 04:12:42;;;;;;;5.35;4.30;;;21.40;35.00;;;;;;5017713;28;20069;-55
2021/11/25 04:15:09;;;;;;;7.40;4.65;;;21.40;35.00;;;;;;5021496;28;20057;-53
2021/11/25 04:17:35;;;;;;;5.75;4.28;;;21.40;34.90;;;;;;5024064;28;20449;-55
2021/11/25 04:20:01;;;;;;;6.10;4.35;;;21.40;34.90;;;;;;5023426;28;20036;-54
2021/11/25 04:22:26;;;;;;;6.32;4.07;;;21.40;34.90;;;;;;5022580;28;20041;-53
2021/11/25 04:24:54;;;;;;;4.45;3.83;;;21.30;34.80;;;;;;5022498;28;20136;-50
2021/11/25 04:27:20;;;;;;;5.50;4.03;;;21.40;34.90;;;;;;5026072;28;20372;-50
2021/11/25 04:29:59;;;;;;;5.85;4.47;;;21.30;34.80;;;;;;5023603;28;20044;-55
2021/11/25 04:37:54;;;;;;;4.90;3.55;;;21.30;34.90;;;;;;5017365;28;20453;-52
2021/11/25 04:40:20;;;;;;;5.65;4.25;;;21.30;34.90;;;;;;5027126;28;20025;-50
2021/11/25 04:42:46;;;;;;;4.80;3.65;;;21.30;34.90;;;;;;5023811;28;20075;-53
2021/11/25 04:45:11;;;;;;;4.55;3.35;;;21.30;34.90;;;;;;5022338;28;20401;-49
2021/11/25 04:47:37;;;;;;;4.53;3.65;;;21.30;34.90;;;;;;5019491;28;20025;-51
2021/11/25 04:50:05;;;;;;;4.45;3.47;;;21.30;34.90;;;;;;5025065;28;20088;-53
2021/11/25 04:52:31;;;;;;;5.25;4.15;;;21.30;34.80;;;;;;5019452;28;20129;-54
2021/11/25 04:54:57;;;;;;;4.80;3.60;;;21.30;34.80;;;;;;5021917;28;20449;-53
2021/11/25 04:57:22;;;;;;;4.32;3.55;;;21.30;34.80;;;;;;5025987;28;20088;-55
2021/11/25 04:59:48;;;;;;;4.47;3.65;;;21.30;34.80;;;;;;5019619;28;20034;-51
2021/11/25 05:02:14;;;;;;;4.05;3.65;;;21.30;34.80;;;;;;5022446;28;20119;-57
2021/11/25 05:04:40;;;;;;;4.53;3.70;;;21.30;34.80;;;;;;5026156;28;20041;-50
2021/11/25 05:07:06;;;;;;;4.43;3.35;;;21.30;34.70;;;;;;5023996;28;20059;-51
2021/11/25 05:09:33;;;;;;;4.93;3.70;;;21.20;34.70;;;;;;5020587;28;20115;-52
2021/11/25 05:11:58;;;;;;;4.30;3.38;;;21.20;34.70;;;;;;5021312;28;20038;-54
2021/11/25 05:14:24;;;;;;;4.28;3.58;;;21.20;34.70;;;;;;5023138;28;20529;-51
2021/11/25 05:16:50;;;;;;;4.55;3.40;;;21.20;34.60;;;;;;5020318;28;20049;-53
2021/11/25 05:19:16;;;;;;;4.43;3.42;;;21.20;34.60;;;;;;5019515;28;20036;-49
2021/11/25 05:21:43;;;;;;;5.15;3.47;;;21.20;34.60;;;;;;5025765;28;20559;-54
2021/11/25 05:24:09;;;;;;;4.38;3.13;;;21.20;34.60;;;;;;5028201;28;20053;-55
2021/11/25 05:26:34;;;;;;;3.55;3.22;;;21.20;34.60;;;;;;5026529;28;20041;-53
2021/11/25 05:29:00;;;;;;;4.88;3.47;;;21.20;34.60;;;;;;5024639;28;20108;-50
2021/11/25 05:31:27;;;;;;;5.00;3.70;;;21.20;34.60;;;;;;5027650;28;20041;-58
2021/11/25 05:33:52;;;;;;;4.25;3.20;;;21.20;34.60;;;;;;5020867;28;20018;-57
2021/11/25 05:36:18;;;;;;;3.83;3.15;;;21.20;34.60;;;;;;5025137;28;20095;-54
2021/11/25 05:38:44;;;;;;;4.53;3.38;;;21.20;34.60;;;;;;5027668;28;20057;-54
2021/11/25 05:41:10;;;;;;;4.88;3.58;;;21.20;34.60;;;;;;5024120;28;20034;-55
2021/11/25 05:43:36;;;;;;;4.32;3.33;;;21.20;34.60;;;;;;5028947;28;20068;-50
2021/11/25 05:46:02;;;;;;;4.03;3.58;;;21.20;34.60;;;;;;5024341;28;20064;-57
2021/11/25 05:48:28;;;;;;;4.32;3.38;;;21.20;34.60;;;;;;5024341;28;20049;-55
2021/11/25 05:50:54;;;;;;;4.03;3.45;;;21.20;34.60;;;;;;5024296;28;20021;-53
2021/11/25 05:53:20;;;;;;;4.47;3.47;;;21.20;34.60;;;;;;5025357;28;20082;-55
2021/11/25 05:55:47;;;;;;;4.78;3.53;;;21.20;35.30;;;;;;5021564;28;20033;-54
2021/11/25 05:58:14;;;;;;;5.00;3.53;;;21.20;34.60;;;;;;5025272;28;20033;-53
2021/11/25 06:00:40;;;;;;;4.32;3.25;;;21.10;34.60;;;;;;5025298;28;20033;-54
2021/11/25 06:03:05;;;;;;;4.03;3.45;;;21.20;34.70;;;;;;5023014;28;20049;-54
2021/11/25 06:05:31;;;;;;;4.30;3.47;;;21.10;34.60;;;;;;5022718;28;20500;-54
2021/11/25 06:07:59;;;;;;;5.05;3.65;;;21.20;34.70;;;;;;5026903;28;20365;-55
2021/11/25 06:10:26;;;;;;;5.07;3.33;;;21.10;34.70;;;;;;5023108;28;20032;-57
2021/11/25 06:12:52;;;;;;;3.97;3.28;;;21.10;34.70;;;;;;5022509;28;20030;-49
2021/11/25 06:15:20;;;;;;;4.18;3.08;;;21.10;34.70;;;;;;5025178;28;20030;-54
2021/11/25 06:17:46;;;;;;;3.83;3.00;;;21.10;34.70;;;;;;5029065;28;20104;-55
2021/11/25 06:20:14;;;;;;;4.75;3.13;;;21.10;34.70;;;;;;5023085;28;20026;-53
2021/11/25 06:22:42;;;;;;;3.63;3.03;;;21.10;34.70;;;;;;5027472;28;20029;-54
2021/11/25 06:25:10;;;;;;;4.15;3.08;;;21.10;34.70;;;;;;5023920;28;20372;-53
2021/11/25 06:27:38;;;;;;;3.75;3.13;;;21.10;34.70;;;;;;5026025;28;20037;-51
2021/11/25 06:30:06;;;;;;;5.35;3.30;;;21.10;34.60;;;;;;5025702;28;20044;-55
2021/11/25 06:32:33;;;;;;;4.25;3.13;;;21.10;34.60;;;;;;5022956;28;20034;-52
2021/11/25 06:34:59;;;;;;;4.00;2.70;;;21.10;34.60;;;;;;5026361;28;20370;-49
2021/11/25 06:37:25;;;;;;;3.60;2.83;;;21.10;35.20;;;;;;5028194;28;20108;-49
2021/11/25 06:39:50;;;;;;;3.47;2.92;;;21.10;34.50;;;;;;5023182;28;20137;-56
2021/11/25 06:42:16;;;;;;;4.15;3.00;;;21.10;34.50;;;;;;5022043;28;20112;-59
2021/11/25 06:44:42;;;;;;;5.20;3.13;;;21.10;34.50;;;;;;5024655;28;20087;-48
2021/11/25 06:47:08;;;;;;;3.33;2.85;;;21.10;34.50;;;;;;5025349;28;20071;-48
2021/11/25 06:49:34;;;;;;;3.72;2.85;;;21.10;34.50;;;;;;5025165;28;20630;-55
2021/11/25 06:52:00;;;;;;;3.90;3.13;;;21.10;34.50;;;;;;5023303;28;20044;-53
2021/11/25 06:54:26;;;;;;;2.95;2.40;;;21.00;34.40;;;;;;5030590;28;20076;-52
2021/11/25 06:56:52;;;;;;;3.42;2.72;;;21.00;34.40;;;;;;5022220;28;20453;-55
2021/11/25 06:59:18;;;;;;;3.78;2.83;;;21.00;34.40;;;;;;5024547;28;20068;-57
2021/11/25 07:01:44;;;;;;;3.50;2.90;;;21.00;34.40;;;;;;5026781;28;20029;-55
2021/11/25 07:04:12;;;;;;;3.35;2.75;;;21.00;34.40;;;;;;5026915;28;20111;-53
2021/11/25 07:06:38;;;;;;;2.90;2.60;;;21.10;34.40;;;;;;5025338;28;20034;-50
2021/11/25 07:09:04;;;;;;;4.10;2.85;;;21.10;34.40;;;;;;5023900;28;20117;-53
2021/11/25 07:11:30;;;;;;;3.00;2.65;;;21.00;34.30;;;;;;5023390;28;20132;-50
2021/11/25 07:13:55;;;;;;;3.20;2.80;;;21.00;34.30;;;;;;5022117;28;20045;-54
2021/11/25 07:16:21;;;;;;;3.53;2.88;;;21.00;34.30;;;;;;5020161;28;20105;-51
2021/11/25 07:18:47;;;;;;;3.17;2.63;;;21.00;34.30;;;;;;5023123;28;20168;-52
2021/11/25 07:21:13;;;;;;;3.35;2.78;;;21.00;34.30;;;;;;5023051;28;20117;-51
2021/11/25 07:23:39;;;;;;;3.45;2.55;;;21.00;34.40;;;;;;5023791;28;20034;-51
2021/11/25 07:26:08;;;;;;;4.80;2.72;;;21.00;34.40;;;;;;5027928;28;20484;-52
2021/11/25 07:28:35;;;;;;;2.58;2.13;;;21.00;34.40;;;;;;5021914;28;20437;-52
2021/11/25 07:31:01;;;;;;;3.42;2.72;;;21.00;34.30;;;;;;5029400;28;20076;-51
2021/11/25 07:33:27;;;;;;;3.67;2.83;;;21.00;34.30;;;;;;5021285;28;20068;-55
2021/11/25 07:35:53;;;;;;;4.30;2.47;;;21.00;34.20;;;;;;5034536;28;20053;-51
2021/11/25 07:38:19;;;;;;;3.40;2.60;;;21.00;34.20;;;;;;5031068;28;20122;-56
2021/11/25 07:40:48;;;;;;;2.80;2.22;;;21.00;34.20;;;;;;5019588;28;20378;-57
2021/11/25 07:43:18;;;;;;;3.10;2.53;;;21.10;34.20;;;;;;5019043;28;20044;-54
2021/11/25 07:45:45;;;;;;;2.28;1.95;;;21.10;34.10;;;;;;5026620;28;20037;-50
2021/11/25 07:48:12;;;;;;;2.45;2.10;;;21.20;34.10;;;;;;5018463;28;20125;-53
2021/11/25 07:50:39;;;;;;;2.28;2.00;;;21.30;34.00;;;;;;5019948;28;20044;-56
2021/11/25 07:53:06;;;;;;;2.10;1.77;;;21.40;33.90;;;;;;5020885;28;20041;-49
2021/11/25 07:55:32;;;;;;;2.38;1.70;;;21.50;33.90;;;;;;5020013;28;20025;-52
2021/11/25 07:57:58;;;;;;;2.70;1.65;;;21.50;33.70;;;;;;5015377;28;20516;-51
2021/11/25 08:00:27;;;;;;;1.75;1.60;;;21.60;33.70;;;;;;5018895;28;20384;-53
2021/11/25 08:02:54;;;;;;;2.03;1.73;;;21.70;33.60;;;;;;5029428;28;20057;-54
2021/11/25 08:05:24;;;;;;;1.70;1.40;;;21.80;33.50;;;;;;5033421;28;20025;-54
2021/11/25 08:07:50;;;;;;;2.53;1.60;;;21.90;33.50;;;;;;5022620;28;20079;-56
2021/11/25 08:10:16;;;;;;;1.92;1.67;;;21.90;33.40;;;;;;5022128;28;20441;-53
2021/11/25 08:12:42;;;;;;;1.77;1.40;;;22.00;33.30;;;;;;5017233;28;20064;-53
2021/11/25 08:15:08;;;;;;;1.70;1.48;;;22.10;33.30;;;;;;5022403;28;20360;-59
2021/11/25 08:17:34;;;;;;;1.88;1.50;;;22.10;33.20;;;;;;5021407;28;20045;-57
2021/11/25 08:20:00;;;;;;;1.88;1.67;;;22.20;33.10;;;;;;5016715;28;20030;-52
2021/11/25 08:22:26;;;;;;;1.77;1.60;;;22.20;33.00;;;;;;5016080;28;20026;-50
2021/11/25 08:24:51;;;;;;;2.00;1.75;;;22.30;32.90;;;;;;5020942;28;20018;-50
2021/11/25 08:27:17;;;;;;;1.88;1.48;;;22.40;32.90;;;;;;5016330;28;20389;-55
2021/11/25 08:29:43;;;;;;;2.42;1.60;;;22.40;32.90;;;;;;5024211;28;20064;-57
2021/11/25 08:32:10;;;;;;;2.38;1.60;;;22.50;32.80;;;;;;5015727;28;20073;-52
2021/11/25 08:34:36;;;;;;;1.73;1.50;;;22.50;32.70;;;;;;5013473;28;20037;-52
2021/11/25 08:37:02;;;;;;;1.75;1.42;;;22.60;32.70;;;;;;5016305;28;20038;-53
2021/11/25 08:39:28;;;;;;;2.28;1.52;;;22.60;32.60;;;;;;5014592;28;20065;-51
2021/11/25 08:41:54;;;;;;;2.40;1.70;;;22.70;32.60;;;;;;5017631;28;20057;-53
2021/11/25 08:44:20;;;;;;;1.95;1.60;;;22.70;32.50;;;;;;5012988;28;20037;-50
2021/11/25 08:46:45;;;;;;;1.55;1.45;;;22.80;32.40;;;;;;5023626;28;20026;-54
2021/11/25 08:49:11;;;;;;;1.60;1.38;;;22.80;32.40;;;;;;5021613;28;20418;-52
2021/11/25 08:51:38;;;;;;;2.17;1.52;;;22.90;32.30;;;;;;5018701;28;20064;-50
2021/11/25 08:54:05;;;;;;;1.73;1.58;;;22.90;32.30;;;;;;5020710;28;20349;-53
2021/11/25 08:56:31;;;;;;;1.88;1.40;;;22.90;32.20;;;;;;5024431;28;20049;-52
2021/11/25 08:58:57;;;;;;;2.38;1.60;;;23.00;32.20;;;;;;5027604;28;20034;-54
2021/11/25 09:01:24;;;;;;;1.88;1.42;;;23.00;32.10;;;;;;5019200;28;20373;-51
2021/11/25 09:03:50;;;;;;;1.55;1.45;;;23.10;32.20;;;;;;5019877;28;20022;-50
2021/11/25 09:06:16;;;;;;;2.22;1.70;;;23.10;32.10;;;;;;5020842;28;20084;-53
2021/11/25 09:08:41;;;;;;;1.77;1.42;;;23.10;32.10;;;;;;5021020;28;20049;-55
2021/11/25 09:11:10;;;;;;;2.50;1.70;;;23.10;32.00;;;;;;5023223;28;20033;-53
2021/11/25 09:13:35;;;;;;;2.03;1.83;;;23.20;32.10;;;;;;5019508;28;20026;-54
2021/11/25 09:16:01;;;;;;;2.10;1.80;;;23.20;32.00;;;;;;5018630;28;20430;-55
2021/11/25 09:18:27;;;;;;;2.13;1.52;;;23.20;32.00;;;;;;5016630;28;20476;-49
2021/11/25 09:20:53;;;;;;;1.73;1.58;;;23.20;31.90;;;;;;5019916;28;20511;-49
2021/11/25 09:23:20;;;;;;;2.28;1.70;;;23.30;31.90;;;;;;5020690;28;20030;-49
2021/11/25 09:25:46;;;;;;;2.15;1.35;;;23.30;31.90;;;;;;5021727;28;20022;-50
2021/11/25 09:28:15;;;;;;;2.05;1.63;;;23.30;31.90;;;;;;5021741;28;20080;-51
2021/11/25 09:30:42;;;;;;;2.08;1.35;;;23.30;31.90;;;;;;5023012;28;20038;-52
2021/11/25 09:33:09;;;;;;;2.22;1.85;;;23.30;31.90;;;;;;5024956;28;20034;-52
2021/11/25 09:35:35;;;;;;;3.50;1.55;;;23.30;31.90;;;;;;5027237;28;20053;-55
2021/11/25 09:38:01;;;;;;;2.70;2.00;;;23.20;31.80;;;;;;5023397;28;20518;-54
2021/11/25 09:40:28;;;;;;;2.38;1.60;;;23.20;31.80;;;;;;5026546;28;20025;-54
2021/11/25 09:43:02;;;;;;;1.80;1.65;;;23.20;31.80;;;;;;5017125;28;20034;-55
2021/11/25 09:45:29;;;;;;;;;;;23.10;31.80;;;;;;5027373;28;20036;-52
2021/11/25 09:47:57;;;;;;;2.38;1.80;;;23.00;31.90;;;;;;5026113;28;19920;-54
2021/11/25 09:50:25;;;;;;;2.42;1.90;;;23.00;32.00;;;;;;5023037;28;20063;-51
2021/11/25 09:52:53;;;;;;;1.85;1.67;;;23.00;32.00;;;;;;5020736;28;20103;-52
2021/11/25 09:55:19;;;;;;;2.47;1.83;;;22.90;32.00;;;;;;5020574;28;20465;-55
2021/11/25 09:57:45;;;;;;;2.30;1.80;;;22.90;32.10;;;;;;5027435;28;20060;-53
2021/11/25 10:00:12;;;;;;;2.30;1.70;;;22.90;32.10;;;;;;5023974;28;20047;-55
2021/11/25 10:02:39;;;;;;;2.90;1.85;;;22.80;32.10;;;;;;5026605;28;20029;-51
2021/11/25 10:05:06;;;;;;;2.65;1.88;;;22.80;32.20;;;;;;5025583;28;20033;-55
2021/11/25 10:07:36;;;;;;;2.20;1.92;;;22.80;32.20;;;;;;5025044;28;20113;-53
2021/11/25 10:10:27;;;;;;;2.05;1.42;;;22.70;32.20;;;;;;5021953;28;20088;-53
2021/11/25 10:12:58;;;;;;;2.17;1.58;;;22.70;32.30;;;;;;5026580;28;20037;-57
2021/11/25 10:15:35;;;;;;;2.17;1.65;;;22.70;32.40;;;;;;5020843;28;20041;-54
2021/11/25 10:18:09;;;;;;;2.40;1.77;;;22.70;32.40;;;;;;5025706;28;20040;-51
2021/11/25 10:20:38;;;;;;;2.35;1.90;;;22.70;32.50;;;;;;5022946;28;20336;-56
2021/11/25 10:23:04;;;;;;;2.13;1.70;;;22.60;32.50;;;;;;5022298;28;20029;-54
2021/11/25 10:25:59;;;;;;;2.28;1.85;;;22.60;32.50;;;;;;5024791;28;20348;-53
2021/11/25 10:29:03;;;;;;;1.95;1.60;;;22.60;32.50;;;;;;5027396;28;20022;-53
2021/11/25 10:31:31;;;;;;;2.22;1.90;;;22.60;32.60;;;;;;4990776;28;20057;-52
2021/11/25 10:34:02;;;;;;;1.88;1.67;;;22.60;32.70;;;;;;5025328;28;20022;-53
2021/11/25 10:42:28;;;;;;;1.80;1.45;;;22.50;32.70;;;;;;5030237;28;20564;-49
2021/11/25 10:44:55;;;;;;;1.92;1.60;;;22.50;32.80;;;;;;5022961;28;20037;-53
2021/11/25 10:47:24;;;;;;;1.70;1.35;;;22.50;32.90;;;;;;5020531;28;20030;-54
2021/11/25 10:50:01;;;;;;;2.17;1.80;;;22.50;32.90;;;;;;5019445;28;20048;-53
2021/11/25 10:52:37;;;;;;;2.13;1.73;;;22.50;32.90;;;;;;5017105;28;20041;-53
2021/11/25 10:55:07;;;;;;;2.90;1.77;;;22.50;32.90;;;;;;5023489;28;20426;-58
2021/11/25 10:57:44;;;;;;;2.25;1.65;;;22.50;33.10;;;;;;5023490;28;21808;-50
2021/11/25 11:00:25;;;;;;;3.45;1.67;;;22.50;33.20;;;;;;5026289;28;20125;-54
2021/11/25 11:03:03;;;;;;;2.88;2.13;;;22.50;33.30;;;;;;5019672;28;20597;-56
2021/11/25 11:05:56;;;;;;;2.05;1.60;;;22.50;33.40;;;;;;5011309;28;20034;-56
2021/11/25 11:08:25;;;;;;;2.00;1.73;;;22.50;33.50;;;;;;5022948;28;20041;-58
2021/11/25 11:11:00;;;;;;;2.95;1.95;;;22.50;33.60;;;;;;5020101;28;20640;-53
2021/11/25 11:18:44;;;;;;;2.88;2.00;;;22.50;33.70;;;;;;5018955;28;20025;-54
2021/11/25 11:21:31;;;;;;;2.67;1.50;;;22.50;33.80;;;;;;5020797;28;20543;-56
2021/11/25 11:24:00;;;;;;;2.03;1.77;;;22.50;33.80;;;;;;5020221;28;20029;-54
2021/11/25 11:26:27;;;;;;;2.00;1.38;;;22.40;33.80;;;;;;5022397;28;20029;-51
2021/11/25 11:28:53;;;;;;;2.25;1.80;;;22.40;33.80;;;;;;5020449;28;20330;-53
2021/11/25 11:31:20;;;;;;;2.45;1.83;;;22.40;33.90;;;;;;5016579;28;20028;-50
2021/11/25 11:33:51;;;;;;;2.42;1.70;;;22.40;33.90;;;;;;5021106;28;20373;-53
2021/11/25 11:36:20;;;;;;;2.72;2.13;;;22.40;34.00;;;;;;5025779;28;20034;-51
2021/11/25 11:38:50;;;;;;;2.83;1.80;;;22.40;34.00;;;;;;5021883;28;20033;-51
2021/11/25 11:41:17;;;;;;;2.08;1.60;;;22.40;34.10;;;;;;5030438;28;20025;-51
2021/11/25 11:43:44;;;;;;;1.95;1.73;;;22.40;34.10;;;;;;5015415;28;20061;-52
2021/11/25 11:46:11;;;;;;;2.97;2.20;;;22.40;34.10;;;;;;5022470;28;20103;-51
2021/11/25 11:48:38;;;;;;;2.60;2.05;;;22.40;34.10;;;;;;5022066;28;20030;-49
2021/11/25 11:51:16;;;;;;;3.13;2.17;;;22.40;34.20;;;;;;5023249;28;20112;-50
2021/11/25 11:53:45;;;;;;;2.45;2.25;;;22.40;34.20;;;;;;5020386;28;20045;-52
2021/11/25 11:56:15;;;;;;;2.50;2.05;;;22.40;34.30;;;;;;5015843;28;20045;-49
2021/11/25 11:58:54;;;;;;;2.85;2.30;;;22.40;34.30;;;;;;5017946;28;20022;-50
2021/11/25 12:01:27;;;;;;;4.60;2.35;;;22.40;34.30;;;;;;5015348;28;20061;-51
2021/11/25 12:03:57;;;;;;;4.60;2.63;;;22.40;34.40;;;;;;5018166;28;20112;-50
2021/11/25 12:06:38;;;;;;;2.47;1.98;;;22.40;34.40;;;;;;5022324;28;20029;-50
2021/11/25 12:09:28;;;;;;;3.35;2.50;;;22.40;34.40;;;;;;5015407;28;20044;-46
2021/11/25 12:12:04;;;;;;;3.03;2.28;;;22.40;34.40;;;;;;5013549;28;20477;-47
2021/11/25 12:14:32;;;;;;;3.25;2.70;;;22.30;34.40;;;;;;5016299;28;20033;-49
2021/11/25 12:17:11;;;;;;;3.05;2.30;;;22.30;34.40;;;;;;5016471;28;20018;-50
2021/11/25 12:19:43;;;;;;;2.80;2.40;;;22.30;34.40;;;;;;5020168;28;20126;-53
2021/11/25 12:22:12;;;;;;;3.00;2.30;;;22.30;34.50;;;;;;5021279;28;20087;-52
2021/11/25 12:24:44;;;;;;;3.72;2.95;;;22.30;34.60;;;;;;5017453;28;20060;-56
2021/11/25 12:27:33;;;;;;;2.80;2.30;;;22.30;34.80;;;;;;5020934;28;20449;-55
2021/11/25 12:30:11;;;;;;;4.38;2.38;;;22.40;35.00;;;;;;5013158;28;20108;-59
2021/11/25 12:32:51;;;;;;;3.70;2.25;;;22.40;35.20;;;;;;5017914;28;20065;-55
2021/11/25 12:35:18;;;;;;;2.40;2.20;;;22.60;35.10;;;;;;5016898;28;20029;-58
2021/11/25 12:37:46;;;;;;;2.90;2.47;;;22.70;35.00;;;;;;5013628;28;20037;-51
2021/11/25 12:40:21;;;;;;;5.25;3.00;;;22.80;34.90;;;;;;5012247;28;20080;-58
2021/11/25 12:42:51;;;;;;;;;;;22.80;34.80;;;;;;5012652;28;20424;-48
2021/11/25 12:45:22;;;;;;;2.63;2.25;;;22.80;34.90;;;;;;5013441;28;20284;-55
2021/11/25 12:47:48;;;;;;;2.50;2.08;;;22.80;34.90;;;;;;5012336;28;20032;-54
2021/11/25 12:50:22;;;;;;;2.70;2.33;;;22.90;34.90;;;;;;5013796;28;20472;-53
2021/11/25 12:52:48;;;;;;;2.80;2.53;;;22.90;34.80;;;;;;5012428;28;20936;-54
2021/11/25 12:55:15;;;;;;;2.75;2.03;;;22.90;35.40;;;;;;5016345;28;20042;-59
2021/11/25 12:57:55;;;;;;;2.60;1.85;;;23.00;34.80;;;;;;5015099;28;20188;-53
2021/11/25 13:00:25;;;;;;;3.45;1.88;;;23.00;34.90;;;;;;5013632;28;20041;-57
2021/11/25 13:03:10;;;;;;;2.15;1.95;;;23.10;35.00;;;;;;5016066;28;20090;-60
2021/11/25 13:05:38;;;;;;;2.83;2.10;;;23.10;35.70;;;;;;5014077;28;20058;-61
2021/11/25 13:08:06;;;;;;;2.53;2.00;;;23.20;35.20;;;;;;5015849;28;20099;-59